Time;durP1;ratioP1;P1;durP2;ratioP2;P2;SDS_P1;SDS_P2;PMS_P1;PMS_P2;Temp;Humidity;BMP_temperature;BMP_pressure;BME280_temperature;BME280_humidity;BME280_pressure;Samples;Min_cycle;Max_cycle;Signal;HPM_P1;HPM_P2
2021/12/02 00:01:30;;;;;;;25.43;16.42;;;;;;;;;;1922668;73;21087;-78
2021/12/02 00:04:01;;;;;;;27.93;17.82;;;;;;;;;;1931555;73;21122;-79
2021/12/02 00:06:31;;;;;;;23.05;16.32;;;;;;;;;;1932460;73;21178;-79
2021/12/02 00:09:01;;;;;;;25.37;15.08;;;;;;;;;;1936979;73;21158;-79
2021/12/02 00:11:32;;;;;;;28.52;16.77;;;;;;;;;;1924159;73;21106;-80
2021/12/02 00:14:09;;;;;;;25.97;15.78;;;;;;;;;;1926268;73;21531;-78
2021/12/02 00:16:51;;;;;;;27.77;16.87;;;;;;;;;;1940771;72;21159;-78
2021/12/02 00:21:37;;;;;;;34.13;20.02;;;;;;;;;;1948746;73;21111;-80
2021/12/02 00:24:08;;;;;;;30.45;17.55;;;;;;;;;;1880916;75;21164;-79
2021/12/02 00:26:39;;;;;;;36.55;20.20;;;;;;;;;;1922768;73;21599;-80
2021/12/02 00:29:10;;;;;;;31.42;21.10;;;;;;;;;;1934802;73;21218;-77
2021/12/02 00:31:40;;;;;;;33.98;22.60;;;;;;;;;;1946244;72;21080;-73
2021/12/02 00:34:11;;;;;;;46.00;24.92;;;;;;;;;;1949101;73;21196;-72
2021/12/02 00:36:42;;;;;;;40.65;22.40;;;;;;;;;;1952346;73;21562;-73
2021/12/02 00:39:14;;;;;;;36.20;22.52;;;;;;;;;;1936257;73;21186;-71
2021/12/02 00:41:45;;;;;;;40.38;23.22;;;;;;;;;;1923135;73;21142;-70
2021/12/02 00:44:16;;;;;;;42.25;24.95;;;;;;;;;;1942065;72;21194;-71
2021/12/02 00:46:46;;;;;;;51.77;27.95;;;;;;;;;;1951758;72;21076;-71
2021/12/02 00:49:17;;;;;;;39.92;23.75;;;;;;;;;;1931799;73;21634;-70
2021/12/02 00:51:49;;;;;;;33.40;22.05;;;;;;;;;;1928962;73;21096;-71
2021/12/02 00:54:20;;;;;;;40.03;24.60;;;;;;;;;;1914575;72;21084;-71
2021/12/02 00:56:50;;;;;;;32.13;21.50;;;;;;;;;;1934915;72;21141;-70
2021/12/02 00:59:22;;;;;;;37.53;22.17;;;;;;;;;;1921523;72;21174;-71
2021/12/02 01:01:52;;;;;;;34.65;20.77;;;;;;;;;;1922826;74;21076;-71
2021/12/02 01:04:24;;;;;;;28.50;21.75;;;;;;;;;;1907766;74;21053;-71
2021/12/02 01:06:55;;;;;;;37.23;21.05;;;;;;;;;;1914424;73;21894;-71
2021/12/02 01:09:25;;;;;;;30.97;22.65;;;;;;;;;;1926945;74;21089;-70
2021/12/02 01:11:56;;;;;;;36.58;22.48;;;;;;;;;;1923648;73;21078;-72
2021/12/02 01:14:27;;;;;;;88.70;26.00;;;;;;;;;;1849580;76;21552;-70
2021/12/02 01:16:57;;;;;;;99.25;26.68;;;;;;;;;;1926760;72;21104;-73
2021/12/02 01:19:27;;;;;;;34.10;20.57;;;;;;;;;;1936121;73;21130;-72
2021/12/02 01:22:00;;;;;;;34.15;21.68;;;;;;;;;;1929887;73;21045;-73
2021/12/02 01:24:30;;;;;;;33.18;20.80;;;;;;;;;;1938194;72;21104;-74
2021/12/02 01:27:01;;;;;;;36.77;21.77;;;;;;;;;;1948771;72;21143;-73
2021/12/02 01:29:32;;;;;;;43.55;23.67;;;;;;;;;;1940475;72;21162;-74
2021/12/02 01:32:06;;;;;;;39.67;24.57;;;;;;;;;;1931781;73;21151;-72
2021/12/02 01:34:35;;;;;;;36.00;24.57;;;;;;;;;;1933453;72;21157;-72
2021/12/02 01:37:07;;;;;;;33.63;21.17;;;;;;;;;;1918613;73;21213;-73
2021/12/02 01:39:56;;;;;;;31.57;20.70;;;;;;;;;;1920669;73;21152;-72
2021/12/02 01:42:28;;;;;;;31.25;21.48;;;;;;;;;;1867576;76;21631;-72
2021/12/02 01:44:59;;;;;;;32.67;20.68;;;;;;;;;;1848956;76;21224;-73
2021/12/02 01:47:31;;;;;;;34.10;22.13;;;;;;;;;;1855747;75;21573;-72
2021/12/02 01:50:04;;;;;;;28.15;19.12;;;;;;;;;;1874185;75;21176;-69
2021/12/02 01:52:39;;;;;;;28.32;19.27;;;;;;;;;;1855896;76;21669;-71
2021/12/02 01:55:11;;;;;;;28.25;19.00;;;;;;;;;;1865416;76;21160;-72
2021/12/02 01:57:42;;;;;;;29.63;20.00;;;;;;;;;;1853074;76;21274;-69
2021/12/02 02:00:15;;;;;;;29.40;18.98;;;;;;;;;;1855677;76;21135;-70
2021/12/02 02:02:51;;;;;;;30.52;20.35;;;;;;;;;;1864279;76;21094;-70
2021/12/02 02:05:21;;;;;;;32.38;21.15;;;;;;;;;;1864078;75;21235;-70
2021/12/02 02:07:53;;;;;;;29.42;20.32;;;;;;;;;;1867490;76;21153;-69
2021/12/02 02:10:27;;;;;;;30.65;20.88;;;;;;;;;;1865068;76;21082;-69
2021/12/02 02:12:58;;;;;;;31.80;20.02;;;;;;;;;;1865815;75;21226;-70
2021/12/02 02:15:27;;;;;;;31.85;19.90;;;;;;;;;;1874129;76;21255;-69
2021/12/02 02:20:28;;;;;;;31.65;19.87;;;;;;;;;;1875664;76;21669;-69
2021/12/02 02:22:58;;;;;;;32.90;19.55;;;;;;;;;;1855842;75;21593;-70
2021/12/02 02:25:48;;;;;;;29.07;20.27;;;;;;;;;;1874414;76;21125;-70
2021/12/02 02:28:19;;;;;;;36.63;22.10;;;;;;;;;;1863845;76;21207;-71
2021/12/02 02:30:50;;;;;;;34.83;20.88;;;;;;;;;;1848039;75;21078;-68
2021/12/02 02:33:24;;;;;;;29.82;19.85;;;;;;;;;;1854174;76;21234;-71
2021/12/02 02:35:55;;;;;;;33.33;21.17;;;;;;;;;;1853537;76;21140;-70
2021/12/02 02:38:26;;;;;;;31.50;21.95;;;;;;;;;;1852814;76;21664;-70
2021/12/02 02:40:58;;;;;;;31.93;19.02;;;;;;;;;;1867477;76;21097;-70
2021/12/02 02:43:27;;;;;;;30.60;18.87;;;;;;;;;;1866326;76;21636;-70
2021/12/02 02:45:57;;;;;;;24.90;17.50;;;;;;;;;;1864233;76;21499;-70
2021/12/02 02:48:28;;;;;;;24.00;14.85;;;;;;;;;;1864990;75;21121;-69
2021/12/02 02:50:58;;;;;;;25.05;15.43;;;;;;;;;;1872583;76;21125;-70
2021/12/02 02:53:28;;;;;;;24.47;16.62;;;;;;;;;;1856159;76;21148;-70
2021/12/02 03:01:14;;;;;;;21.57;13.08;;;;;;;;;;1842156;76;21149;-71
2021/12/02 03:03:43;;;;;;;24.07;13.40;;;;;;;;;;1868673;75;21561;-70
2021/12/02 03:08:47;;;;;;;19.70;12.98;;;;;;;;;;1868209;76;21204;-70
2021/12/02 03:11:12;;;;;;;19.42;12.53;;;;;;;;;;1856978;76;21607;-71
2021/12/02 03:14:08;;;;;;;27.82;13.95;;;;;;;;;;1877716;75;21213;-71
2021/12/02 03:18:52;;;;;;;21.90;12.82;;;;;;;;;;1869484;75;21141;-72
2021/12/02 03:21:24;;;;;;;22.35;12.35;;;;;;;;;;1832890;78;21226;-72
2021/12/02 03:23:55;;;;;;;23.50;12.28;;;;;;;;;;1862281;76;21170;-73
2021/12/02 03:26:28;;;;;;;21.77;12.13;;;;;;;;;;1853395;76;21166;-73
2021/12/02 03:28:58;;;;;;;24.35;12.25;;;;;;;;;;1851490;76;21146;-71
2021/12/02 03:31:28;;;;;;;23.18;12.23;;;;;;;;;;1847812;77;21148;-71
2021/12/02 03:33:59;;;;;;;22.70;12.75;;;;;;;;;;1816578;78;21261;-72
2021/12/02 03:36:30;;;;;;;17.95;10.93;;;;;;;;;;1850320;76;21179;-73
2021/12/02 03:39:00;;;;;;;27.98;13.28;;;;;;;;;;1862082;76;21959;-72
2021/12/02 03:41:31;;;;;;;18.37;12.10;;;;;;;;;;1856237;76;21142;-71
2021/12/02 03:44:01;;;;;;;25.70;12.40;;;;;;;;;;1851429;77;21103;-71
2021/12/02 03:46:31;;;;;;;19.30;11.90;;;;;;;;;;1853652;77;21115;-72
2021/12/02 03:49:03;;;;;;;23.55;11.80;;;;;;;;;;1857921;76;21201;-73
2021/12/02 03:51:33;;;;;;;17.15;10.68;;;;;;;;;;1864302;76;21322;-71
2021/12/02 03:54:05;;;;;;;22.17;11.73;;;;;;;;;;1841861;76;21212;-71
2021/12/02 03:56:37;;;;;;;20.90;11.80;;;;;;;;;;1854644;75;21160;-71
2021/12/02 03:59:08;;;;;;;21.62;11.43;;;;;;;;;;1832715;76;21146;-71
2021/12/02 04:01:38;;;;;;;18.15;12.18;;;;;;;;;;1877561;75;21237;-72
2021/12/02 04:04:08;;;;;;;19.05;12.00;;;;;;;;;;1868897;76;21614;-73
2021/12/02 04:06:39;;;;;;;17.25;11.60;;;;;;;;;;1847142;76;21145;-74
2021/12/02 04:09:19;;;;;;;24.27;14.53;;;;;;;;;;1830257;76;21086;-72
2021/12/02 04:11:48;;;;;;;21.55;12.98;;;;;;;;;;1831163;77;21819;-71
2021/12/02 04:14:19;;;;;;;19.52;11.55;;;;;;;;;;1865028;76;21281;-71
2021/12/02 04:16:58;;;;;;;21.00;11.73;;;;;;;;;;1829744;77;21153;-71
2021/12/02 04:19:17;;;;;;;19.23;11.90;;;;;;;;;;1799838;78;21147;-71
2021/12/02 04:21:47;;;;;;;20.68;11.93;;;;;;;;;;1840295;76;21696;-71
2021/12/02 04:24:18;;;;;;;23.85;12.35;;;;;;;;;;1867954;76;21157;-71
2021/12/02 04:26:49;;;;;;;21.33;11.53;;;;;;;;;;1841973;76;21447;-71
2021/12/02 04:29:19;;;;;;;18.67;10.72;;;;;;;;;;1887581;74;21147;-72
2021/12/02 04:31:49;;;;;;;15.63;11.03;;;;;;;;;;1879715;75;21112;-72
2021/12/02 04:34:20;;;;;;;18.55;10.80;;;;;;;;;;1883623;74;21250;-72
2021/12/02 04:36:50;;;;;;;20.17;11.57;;;;;;;;;;1890166;75;21157;-71
2021/12/02 04:39:20;;;;;;;21.40;11.65;;;;;;;;;;1894177;74;21129;-72
2021/12/02 04:41:50;;;;;;;16.67;10.80;;;;;;;;;;1878841;76;21654;-71
2021/12/02 04:44:20;;;;;;;21.12;11.33;;;;;;;;;;1880366;76;21655;-70
2021/12/02 04:46:53;;;;;;;15.03;10.78;;;;;;;;;;1888915;75;21176;-71
2021/12/02 04:49:22;;;;;;;18.12;10.88;;;;;;;;;;1877131;74;21125;-70
2021/12/02 04:51:53;;;;;;;19.27;11.90;;;;;;;;;;1877699;76;21207;-70
2021/12/02 04:54:23;;;;;;;19.30;11.63;;;;;;;;;;1878081;74;21599;-71
2021/12/02 04:56:53;;;;;;;21.85;11.70;;;;;;;;;;1861603;76;21190;-70
2021/12/02 04:59:23;;;;;;;18.45;11.88;;;;;;;;;;1816814;77;21631;-71
2021/12/02 05:01:53;;;;;;;19.02;11.70;;;;;;;;;;1841545;76;21086;-71
2021/12/02 05:04:24;;;;;;;23.52;11.85;;;;;;;;;;1828857;76;21093;-71
2021/12/02 05:06:55;;;;;;;19.10;12.47;;;;;;;;;;1841964;76;21176;-71
2021/12/02 05:09:28;;;;;;;19.85;13.10;;;;;;;;;;1843758;76;21123;-71
2021/12/02 05:11:58;;;;;;;18.02;11.73;;;;;;;;;;1843891;78;21201;-71
2021/12/02 05:14:28;;;;;;;17.42;11.65;;;;;;;;;;1844061;76;21157;-71
2021/12/02 05:16:59;;;;;;;19.15;10.63;;;;;;;;;;1840557;76;21640;-72
2021/12/02 05:19:29;;;;;;;24.50;10.80;;;;;;;;;;1830780;76;21573;-71
2021/12/02 05:21:59;;;;;;;15.18;11.28;;;;;;;;;;1843932;76;21744;-71
2021/12/02 05:24:31;;;;;;;29.25;11.73;;;;;;;;;;1835044;76;21208;-71
2021/12/02 05:27:01;;;;;;;18.15;11.28;;;;;;;;;;1843425;76;21218;-70
2021/12/02 05:29:32;;;;;;;17.37;11.00;;;;;;;;;;1838238;76;21245;-72
2021/12/02 05:32:02;;;;;;;21.10;11.60;;;;;;;;;;1839807;76;21134;-71
2021/12/02 05:34:35;;;;;;;19.37;11.05;;;;;;;;;;1804184;79;21140;-71
2021/12/02 05:37:09;;;;;;;16.27;12.00;;;;;;;;;;1814487;78;21145;-70
2021/12/02 05:39:39;;;;;;;19.57;11.53;;;;;;;;;;1824659;78;21124;-70
2021/12/02 05:42:10;;;;;;;16.50;10.68;;;;;;;;;;1804023;78;21614;-70
2021/12/02 05:44:40;;;;;;;14.15;10.60;;;;;;;;;;1805472;79;21154;-70
2021/12/02 05:47:11;;;;;;;17.70;10.63;;;;;;;;;;1792541;79;21159;-74
2021/12/02 05:49:42;;;;;;;17.82;10.70;;;;;;;;;;1797302;78;21176;-71
2021/12/02 05:52:14;;;;;;;20.97;10.82;;;;;;;;;;1858726;76;21198;-71
2021/12/02 05:54:44;;;;;;;16.10;10.00;;;;;;;;;;1852309;76;21186;-71
2021/12/02 05:57:14;;;;;;;18.20;10.10;;;;;;;;;;1871710;76;21148;-70
2021/12/02 05:59:45;;;;;;;19.27;11.15;;;;;;;;;;1864213;76;21159;-69
2021/12/02 06:02:15;;;;;;;16.73;10.00;;;;;;;;;;1851935;77;21631;-69
2021/12/02 06:04:50;;;;;;;14.80;9.75;;;;;;;;;;1876539;76;21643;-71
2021/12/02 06:07:17;;;;;;;26.68;10.48;;;;;;;;;;1851942;76;21129;-70
2021/12/02 06:09:47;;;;;;;15.03;9.73;;;;;;;;;;1863761;76;21135;-71
2021/12/02 06:12:18;;;;;;;19.07;10.72;;;;;;;;;;1852954;76;21238;-71
2021/12/02 06:14:48;;;;;;;13.83;9.25;;;;;;;;;;1862191;76;21136;-68
2021/12/02 06:17:18;;;;;;;19.05;10.68;;;;;;;;;;1853269;76;21218;-70
2021/12/02 06:19:48;;;;;;;16.05;10.48;;;;;;;;;;1859564;76;21168;-70
2021/12/02 06:22:18;;;;;;;14.05;9.33;;;;;;;;;;1875562;76;21131;-70
2021/12/02 06:25:05;;;;;;;16.27;9.93;;;;;;;;;;1869268;76;21122;-70
2021/12/02 06:27:20;;;;;;;15.18;9.25;;;;;;;;;;1870041;76;21094;-70
2021/12/02 06:29:50;;;;;;;15.68;9.38;;;;;;;;;;1849896;76;21718;-70
2021/12/02 06:32:20;;;;;;;15.58;9.10;;;;;;;;;;1863393;76;21132;-70
2021/12/02 06:34:51;;;;;;;13.48;9.80;;;;;;;;;;1854171;76;21172;-70
2021/12/02 06:37:21;;;;;;;13.20;9.73;;;;;;;;;;1843952;77;21193;-70
2021/12/02 06:39:51;;;;;;;14.07;9.98;;;;;;;;;;1860457;76;21135;-69
2021/12/02 06:42:22;;;;;;;15.60;10.10;;;;;;;;;;1878271;76;21211;-70
2021/12/02 06:44:52;;;;;;;15.43;10.20;;;;;;;;;;1855011;76;21387;-70
2021/12/02 06:47:26;;;;;;;17.77;10.00;;;;;;;;;;1844300;76;21148;-69
2021/12/02 06:49:56;;;;;;;14.60;9.78;;;;;;;;;;1842352;76;21137;-69
2021/12/02 06:52:27;;;;;;;12.10;9.53;;;;;;;;;;1870282;76;21154;-70
2021/12/02 06:54:57;;;;;;;15.83;9.15;;;;;;;;;;1862589;75;21188;-69
2021/12/02 06:57:27;;;;;;;16.17;10.05;;;;;;;;;;1857965;76;21093;-70
2021/12/02 07:00:03;;;;;;;16.40;10.15;;;;;;;;;;1855620;75;21202;-70
2021/12/02 07:02:30;;;;;;;17.87;10.05;;;;;;;;;;1867668;76;21057;-70
2021/12/02 07:05:01;;;;;;;17.20;9.50;;;;;;;;;;1858942;76;21140;-70
2021/12/02 07:07:36;;;;;;;14.75;9.40;;;;;;;;;;1883557;76;21127;-70
2021/12/02 07:12:56;;;;;;;13.10;9.45;;;;;;;;;;1848345;77;21201;-70
2021/12/02 07:15:31;;;;;;;15.20;10.00;;;;;;;;;;1860668;76;21641;-71
2021/12/02 07:17:59;;;;;;;19.17;9.23;;;;;;;;;;1827842;76;21127;-70
2021/12/02 07:20:30;;;;;;;16.82;9.80;;;;;;;;;;1869257;76;21138;-69
2021/12/02 07:23:00;;;;;;;13.83;9.68;;;;;;;;;;1865374;76;21715;-68
2021/12/02 07:25:31;;;;;;;34.58;10.60;;;;;;;;;;1847960;76;21139;-69
2021/12/02 07:28:01;;;;;;;16.45;9.35;;;;;;;;;;1856961;75;21085;-70
2021/12/02 07:30:31;;;;;;;15.63;9.78;;;;;;;;;;1864764;76;21550;-69
2021/12/02 07:33:03;;;;;;;12.20;8.73;;;;;;;;;;1824542;77;21173;-69
2021/12/02 07:35:33;;;;;;;11.30;8.63;;;;;;;;;;1850586;76;21082;-69
2021/12/02 07:38:04;;;;;;;13.05;9.53;;;;;;;;;;1868703;75;21091;-70
2021/12/02 07:40:37;;;;;;;14.80;9.75;;;;;;;;;;1869265;75;21130;-70
2021/12/02 07:43:07;;;;;;;14.73;9.25;;;;;;;;;;1860638;76;21640;-70
2021/12/02 07:45:37;;;;;;;16.42;9.75;;;;;;;;;;1857921;76;21138;-69
2021/12/02 07:48:09;;;;;;;15.25;9.80;;;;;;;;;;1852799;76;21122;-69
2021/12/02 07:50:39;;;;;;;16.40;9.53;;;;;;;;;;1878166;76;21103;-69
2021/12/02 07:53:09;;;;;;;13.88;8.88;;;;;;;;;;1860996;76;21146;-69
2021/12/02 07:55:41;;;;;;;16.35;9.83;;;;;;;;;;1827902;77;21045;-69
2021/12/02 07:58:11;;;;;;;16.75;9.05;;;;;;;;;;1865735;76;21137;-69
2021/12/02 08:00:41;;;;;;;16.25;9.75;;;;;;;;;;1848578;76;21603;-69
2021/12/02 08:03:12;;;;;;;13.93;9.38;;;;;;;;;;1847494;76;21606;-69
2021/12/02 08:05:43;;;;;;;18.57;9.88;;;;;;;;;;1852895;76;21186;-68
2021/12/02 08:08:14;;;;;;;18.75;9.98;;;;;;;;;;1838185;77;21248;-68
2021/12/02 08:10:45;;;;;;;17.98;9.73;;;;;;;;;;1867729;76;21121;-69
2021/12/02 08:13:15;;;;;;;17.10;8.48;;;;;;;;;;1888276;75;21131;-69
2021/12/02 08:15:46;;;;;;;12.63;9.25;;;;;;;;;;1882055;75;21135;-69
2021/12/02 08:18:16;;;;;;;17.87;9.58;;;;;;;;;;1905987;74;21087;-68
2021/12/02 08:20:47;;;;;;;13.48;9.48;;;;;;;;;;1891124;74;21158;-69
2021/12/02 08:23:18;;;;;;;15.78;10.10;;;;;;;;;;1884517;74;21392;-69
2021/12/02 08:25:49;;;;;;;11.97;9.45;;;;;;;;;;1910901;74;21087;-69
2021/12/02 08:28:19;;;;;;;14.78;9.85;;;;;;;;;;1892440;74;21150;-69
2021/12/02 08:30:50;;;;;;;15.13;10.30;;;;;;;;;;1891278;74;21149;-70
2021/12/02 08:33:20;;;;;;;15.10;10.08;;;;;;;;;;1907362;74;21170;-69
2021/12/02 08:35:51;;;;;;;19.45;10.43;;;;;;;;;;1893214;76;21087;-70
2021/12/02 08:38:30;;;;;;;13.50;9.13;;;;;;;;;;1884452;74;21091;-70
2021/12/02 08:40:53;;;;;;;19.82;10.30;;;;;;;;;;1876771;74;21653;-69
2021/12/02 08:43:23;;;;;;;14.30;10.08;;;;;;;;;;1907910;74;21130;-69
2021/12/02 08:45:54;;;;;;;13.20;10.38;;;;;;;;;;1905225;74;21184;-68
2021/12/02 08:48:24;;;;;;;15.38;10.40;;;;;;;;;;1893151;74;21484;-69
2021/12/02 08:50:54;;;;;;;19.90;12.15;;;;;;;;;;1906008;74;21110;-69
2021/12/02 08:53:25;;;;;;;17.10;10.85;;;;;;;;;;1893021;74;21133;-70
2021/12/02 08:55:55;;;;;;;14.93;10.18;;;;;;;;;;1892059;74;21177;-71
2021/12/02 08:58:25;;;;;;;17.00;10.65;;;;;;;;;;1854638;76;21101;-69
2021/12/02 09:00:59;;;;;;;19.12;10.65;;;;;;;;;;1890652;74;22083;-71
2021/12/02 09:03:39;;;;;;;16.40;10.85;;;;;;;;;;1888943;74;21196;-69
2021/12/02 09:06:11;;;;;;;15.58;10.20;;;;;;;;;;1889678;74;21656;-70
2021/12/02 09:08:37;;;;;;;17.48;10.70;;;;;;;;;;1893755;74;21661;-70
2021/12/02 09:11:10;;;;;;;16.65;9.83;;;;;;;;;;1892075;74;21158;-69
2021/12/02 09:13:39;;;;;;;13.72;8.93;;;;;;;;;;1892521;75;21174;-70
2021/12/02 09:16:09;;;;;;;17.95;10.68;;;;;;;;;;1880626;75;21131;-70
2021/12/02 09:18:41;;;;;;;14.73;9.95;;;;;;;;;;1904223;75;21128;-69
2021/12/02 09:21:11;;;;;;;19.17;10.00;;;;;;;;;;1886695;75;21101;-70
2021/12/02 09:23:41;;;;;;;17.65;9.63;;;;;;;;;;1892441;75;21465;-69
2021/12/02 09:26:12;;;;;;;13.30;9.73;;;;;;;;;;1885115;75;21168;-69
2021/12/02 09:28:42;;;;;;;16.60;10.63;;;;;;;;;;1884025;75;21204;-69
2021/12/02 09:31:12;;;;;;;16.48;9.95;;;;;;;;;;1884281;75;21123;-69
2021/12/02 09:33:43;;;;;;;18.52;9.40;;;;;;;;;;1897031;74;21642;-71
2021/12/02 09:36:14;;;;;;;14.18;9.33;;;;;;;;;;1899217;75;21182;-70
2021/12/02 09:38:45;;;;;;;12.90;9.15;;;;;;;;;;1897505;74;21155;-71
2021/12/02 09:41:15;;;;;;;18.02;10.50;;;;;;;;;;1896293;75;21126;-70
2021/12/02 09:43:45;;;;;;;16.65;10.18;;;;;;;;;;1840636;77;21084;-70
2021/12/02 09:46:15;;;;;;;14.03;10.08;;;;;;;;;;1882804;75;21232;-70
2021/12/02 09:48:46;;;;;;;19.02;10.75;;;;;;;;;;1859188;77;21088;-72
2021/12/02 09:51:22;;;;;;;20.12;10.45;;;;;;;;;;1842672;77;21136;-70
2021/12/02 09:56:28;;;;;;;17.35;11.10;;;;;;;;;;1834164;78;21190;-72
2021/12/02 10:01:45;;;;;;;19.12;10.78;;;;;;;;;;1877471;74;21075;-71
2021/12/02 10:04:05;;;;;;;16.02;11.83;;;;;;;;;;1853098;74;22169;-70
2021/12/02 10:06:39;;;;;;;14.03;10.80;;;;;;;;;;1845811;76;21595;-68
2021/12/02 10:09:14;;;;;;;19.80;11.30;;;;;;;;;;1866841;77;21177;-68
2021/12/02 10:11:54;;;;;;;21.17;11.30;;;;;;;;;;1866348;77;21131;-70
2021/12/02 10:14:20;;;;;;;18.17;10.60;;;;;;;;;;1865110;76;21127;-69
2021/12/02 10:16:51;;;;;;;19.23;11.12;;;;;;;;;;1843564;77;21725;-70
2021/12/02 10:19:27;;;;;;;16.12;10.93;;;;;;;;;;1881151;75;21626;-69
2021/12/02 10:22:09;;;;;;;16.60;10.53;;;;;;;;;;1871074;76;21200;-70
2021/12/02 10:24:29;;;;;;;18.02;11.53;;;;;;;;;;1885229;76;21174;-70
2021/12/02 10:27:04;;;;;;;14.45;10.25;;;;;;;;;;1847285;77;21112;-69
2021/12/02 10:29:37;;;;;;;21.48;13.30;;;;;;;;;;1845735;77;21206;-70
2021/12/02 10:32:08;;;;;;;20.88;12.37;;;;;;;;;;1844636;77;21226;-69
2021/12/02 10:34:39;;;;;;;19.12;12.35;;;;;;;;;;1802763;79;21170;-70
2021/12/02 10:37:11;;;;;;;19.17;10.93;;;;;;;;;;1855607;77;21233;-70
2021/12/02 10:39:43;;;;;;;18.75;10.93;;;;;;;;;;1856057;77;21203;-70
2021/12/02 10:42:17;;;;;;;21.75;11.33;;;;;;;;;;1850024;77;21151;-70
2021/12/02 10:44:45;;;;;;;22.87;13.00;;;;;;;;;;1865892;77;21185;-70
2021/12/02 10:47:16;;;;;;;25.77;13.70;;;;;;;;;;1843588;77;21534;-69
2021/12/02 10:49:48;;;;;;;24.35;14.38;;;;;;;;;;1879185;76;21103;-70
2021/12/02 10:52:20;;;;;;;28.85;16.95;;;;;;;;;;1852767;76;21150;-70
2021/12/02 10:54:52;;;;;;;26.07;15.72;;;;;;;;;;1874726;76;21162;-69
2021/12/02 10:57:23;;;;;;;22.22;15.32;;;;;;;;;;1847019;78;21072;-70
2021/12/02 10:59:56;;;;;;;19.98;13.95;;;;;;;;;;1874252;76;21626;-70
2021/12/02 11:02:26;;;;;;;24.20;14.93;;;;;;;;;;1874876;76;21768;-70
2021/12/02 11:04:59;;;;;;;24.18;14.85;;;;;;;;;;1827851;78;21176;-70
2021/12/02 11:07:30;;;;;;;28.10;16.05;;;;;;;;;;1882105;76;21111;-70
2021/12/02 11:10:02;;;;;;;29.82;17.70;;;;;;;;;;1879019;75;21166;-69
2021/12/02 11:12:34;;;;;;;23.50;17.20;;;;;;;;;;1884251;76;21527;-72
2021/12/02 11:15:06;;;;;;;24.92;16.60;;;;;;;;;;1872381;75;21139;-71
2021/12/02 11:17:39;;;;;;;28.15;18.87;;;;;;;;;;1868442;76;21594;-71
2021/12/02 11:20:11;;;;;;;28.25;18.07;;;;;;;;;;1851449;76;21110;-69
2021/12/02 11:22:41;;;;;;;37.23;20.62;;;;;;;;;;1857765;76;21128;-69
2021/12/02 11:25:12;;;;;;;34.53;19.92;;;;;;;;;;1882151;76;21583;-71
2021/12/02 11:27:44;;;;;;;36.63;21.52;;;;;;;;;;1849745;75;21692;-72
2021/12/02 11:30:16;;;;;;;40.67;24.90;;;;;;;;;;1872159;76;21107;-72
2021/12/02 11:32:46;;;;;;;37.75;28.12;;;;;;;;;;1822614;77;21212;-72
2021/12/02 11:35:18;;;;;;;50.33;30.75;;;;;;;;;;1864370;76;21193;-71
2021/12/02 11:37:50;;;;;;;45.55;27.17;;;;;;;;;;1882279;75;21150;-71
2021/12/02 11:40:22;;;;;;;41.08;25.77;;;;;;;;;;1874045;76;21256;-71
2021/12/02 11:42:53;;;;;;;41.28;24.37;;;;;;;;;;1845249;77;21151;-70
2021/12/02 11:45:24;;;;;;;34.45;22.55;;;;;;;;;;1846406;78;21151;-70
2021/12/02 11:47:55;;;;;;;42.03;23.65;;;;;;;;;;1825623;78;21194;-70
2021/12/02 11:50:26;;;;;;;34.45;22.82;;;;;;;;;;1874622;76;21140;-70
2021/12/02 11:52:57;;;;;;;37.03;21.80;;;;;;;;;;1875525;75;21080;-70
2021/12/02 11:55:28;;;;;;;36.42;24.65;;;;;;;;;;1864725;76;21127;-70
2021/12/02 11:57:59;;;;;;;33.50;21.68;;;;;;;;;;1885645;76;21143;-70
2021/12/02 12:00:30;;;;;;;35.45;21.25;;;;;;;;;;1827381;77;21218;-70
2021/12/02 12:03:00;;;;;;;31.10;22.27;;;;;;;;;;1869016;76;21188;-70
2021/12/02 12:05:31;;;;;;;40.25;22.07;;;;;;;;;;1871598;76;21189;-69
2021/12/02 12:08:03;;;;;;;33.98;21.52;;;;;;;;;;1866889;76;21104;-69
2021/12/02 12:10:34;;;;;;;34.65;20.15;;;;;;;;;;1867427;76;21653;-69
2021/12/02 12:13:06;;;;;;;32.03;20.68;;;;;;;;;;1869551;75;21103;-70
2021/12/02 12:15:37;;;;;;;36.90;21.15;;;;;;;;;;1859984;75;21236;-69
2021/12/02 12:18:10;;;;;;;39.38;20.70;;;;;;;;;;1881241;75;21559;-69
2021/12/02 12:20:42;;;;;;;36.48;20.82;;;;;;;;;;1857689;75;21166;-69
2021/12/02 12:23:16;;;;;;;47.88;21.80;;;;;;;;;;1873703;76;21183;-69
2021/12/02 12:25:49;;;;;;;37.75;21.25;;;;;;;;;;1872490;75;21139;-70
2021/12/02 12:28:19;;;;;;;34.03;21.87;;;;;;;;;;1876047;76;21482;-71
2021/12/02 12:30:51;;;;;;;36.50;22.58;;;;;;;;;;1881042;75;21183;-70
2021/12/02 12:33:27;;;;;;;51.95;21.73;;;;;;;;;;1878022;75;21162;-70
2021/12/02 12:38:33;;;;;;;40.23;20.92;;;;;;;;;;1874781;76;21092;-71
2021/12/02 12:41:07;;;;;;;36.88;21.07;;;;;;;;;;1860638;76;21567;-69
2021/12/02 12:43:40;;;;;;;35.98;20.43;;;;;;;;;;1875431;75;21227;-72
2021/12/02 12:46:12;;;;;;;35.73;21.17;;;;;;;;;;1866990;76;21692;-71
2021/12/02 12:48:43;;;;;;;31.87;20.90;;;;;;;;;;1860420;77;21598;-71
2021/12/02 12:51:13;;;;;;;32.28;20.08;;;;;;;;;;1888932;75;21071;-70
2021/12/02 12:53:46;;;;;;;29.80;21.07;;;;;;;;;;1829584;77;21136;-70
2021/12/02 12:56:23;;;;;;;27.90;19.90;;;;;;;;;;1822400;79;22321;-71
2021/12/02 12:58:53;;;;;;;29.75;20.45;;;;;;;;;;1849677;77;21707;-71
2021/12/02 13:01:27;;;;;;;31.85;19.40;;;;;;;;;;1856846;76;21217;-70
2021/12/02 13:03:57;;;;;;;30.85;19.48;;;;;;;;;;1891042;75;21575;-71
2021/12/02 13:06:27;;;;;;;29.27;20.20;;;;;;;;;;1875705;76;21157;-70
2021/12/02 13:09:01;;;;;;;36.88;22.25;;;;;;;;;;1883887;75;21166;-69
2021/12/02 13:11:34;;;;;;;35.67;21.70;;;;;;;;;;1895164;75;21123;-70
2021/12/02 13:14:05;;;;;;;30.45;20.80;;;;;;;;;;1887502;74;21558;-71
2021/12/02 13:16:38;;;;;;;40.17;23.42;;;;;;;;;;1857876;76;21258;-71
2021/12/02 13:19:08;;;;;;;37.38;22.15;;;;;;;;;;1815323;79;21167;-69
2021/12/02 13:21:39;;;;;;;36.98;21.87;;;;;;;;;;1886530;75;21530;-71
2021/12/02 13:24:13;;;;;;;36.70;22.37;;;;;;;;;;1880623;75;21164;-71
2021/12/02 13:26:47;;;;;;;39.53;22.60;;;;;;;;;;1887960;75;21228;-71
2021/12/02 13:29:21;;;;;;;52.17;26.55;;;;;;;;;;1874593;75;21147;-73
2021/12/02 13:31:55;;;;;;;36.33;20.92;;;;;;;;;;1879090;74;21127;-71
2021/12/02 13:34:26;;;;;;;33.18;19.82;;;;;;;;;;1852355;76;21197;-71
2021/12/02 13:36:58;;;;;;;25.37;18.07;;;;;;;;;;1884683;74;21099;-72
2021/12/02 13:39:29;;;;;;;24.30;18.40;;;;;;;;;;1851250;76;21124;-68
2021/12/02 13:42:02;;;;;;;30.00;19.92;;;;;;;;;;1839951;76;21599;-69
2021/12/02 13:44:34;;;;;;;32.40;19.07;;;;;;;;;;1845632;76;21521;-70
2021/12/02 13:47:09;;;;;;;28.57;19.45;;;;;;;;;;1848147;76;21158;-70
2021/12/02 13:49:40;;;;;;;35.33;19.60;;;;;;;;;;1855004;76;21150;-71
2021/12/02 13:57:16;;;;;;;36.48;22.10;;;;;;;;;;1886845;75;21159;-70
2021/12/02 13:59:46;;;;;;;35.38;20.90;;;;;;;;;;1887361;75;21080;-71
2021/12/02 14:02:18;;;;;;;37.38;22.45;;;;;;;;;;1889148;75;21590;-73
2021/12/02 14:04:49;;;;;;;34.90;21.12;;;;;;;;;;1869481;75;21160;-70
2021/12/02 14:07:21;;;;;;;32.50;22.32;;;;;;;;;;1859609;76;21115;-81
2021/12/02 14:09:52;;;;;;;36.63;23.15;;;;;;;;;;1843156;76;21178;-79
2021/12/02 14:12:24;;;;;;;33.53;22.98;;;;;;;;;;1871688;75;21076;-79
2021/12/02 14:14:55;;;;;;;36.10;22.70;;;;;;;;;;1844959;76;21178;-80
2021/12/02 14:17:27;;;;;;;34.15;22.82;;;;;;;;;;1879525;75;21119;-80
2021/12/02 14:19:58;;;;;;;43.38;23.77;;;;;;;;;;1834056;78;21595;-80
2021/12/02 14:22:29;;;;;;;34.90;24.43;;;;;;;;;;1863470;75;21543;-79
2021/12/02 14:24:59;;;;;;;39.25;24.25;;;;;;;;;;1898835;75;21119;-79
2021/12/02 14:27:29;;;;;;;36.20;23.62;;;;;;;;;;1875621;75;21624;-79
2021/12/02 14:30:01;;;;;;;37.53;23.42;;;;;;;;;;1849668;76;21146;-80
2021/12/02 14:32:32;;;;;;;36.70;23.80;;;;;;;;;;1819272;78;21159;-81
2021/12/02 14:35:03;;;;;;;36.10;24.45;;;;;;;;;;1881543;76;21146;-80
2021/12/02 14:37:33;;;;;;;37.05;24.15;;;;;;;;;;1880023;75;21132;-81
2021/12/02 14:40:04;;;;;;;42.75;24.87;;;;;;;;;;1880119;75;21605;-80
2021/12/02 14:42:34;;;;;;;41.18;26.68;;;;;;;;;;1874085;76;21147;-81
2021/12/02 14:45:05;;;;;;;43.45;26.05;;;;;;;;;;1847621;76;21170;-80
2021/12/02 14:47:36;;;;;;;44.73;26.07;;;;;;;;;;1886871;74;21163;-80
2021/12/02 14:50:09;;;;;;;38.95;25.68;;;;;;;;;;1874945;76;21160;-82
2021/12/02 14:52:39;;;;;;;39.53;25.92;;;;;;;;;;1876344;75;21135;-80
2021/12/02 14:55:13;;;;;;;42.67;25.97;;;;;;;;;;1857985;76;21159;-81
2021/12/02 14:57:45;;;;;;;39.42;25.10;;;;;;;;;;1853890;76;21554;-81
2021/12/02 15:00:18;;;;;;;49.00;26.57;;;;;;;;;;1829638;77;21154;-83
2021/12/02 15:02:50;;;;;;;41.13;25.50;;;;;;;;;;1834110;76;21123;-81
2021/12/02 15:05:22;;;;;;;41.85;25.85;;;;;;;;;;1820205;76;21174;-81
2021/12/02 15:07:55;;;;;;;40.45;27.17;;;;;;;;;;1880645;75;21602;-79
2021/12/02 15:10:27;;;;;;;40.75;25.12;;;;;;;;;;1878938;75;21135;-80
2021/12/02 15:13:00;;;;;;;39.40;24.07;;;;;;;;;;1886193;75;21566;-80